Time;durP1;ratioP1;P1;durP2;ratioP2;P2;SDS_P1;SDS_P2;PMS_P1;PMS_P2;Temp;Humidity;BMP_temperature;BMP_pressure;BME280_temperature;BME280_humidity;BME280_pressure;Samples;Min_cycle;Max_cycle;Signal;HPM_P1;HPM_P2
2022/01/05 00:00:07;;;;;;;3.27;2.73;;;7.70;99.90;;;;;;5181088;28;20037;-36
2022/01/05 00:02:40;;;;;;;3.67;2.55;;;7.70;99.90;;;;;;5176803;28;20050;-36
2022/01/05 00:05:13;;;;;;;3.42;2.47;;;7.70;99.90;;;;;;5185334;28;20049;-36
2022/01/05 00:07:45;;;;;;;3.35;2.72;;;7.60;99.90;;;;;;5162394;28;20051;-37
2022/01/05 00:10:18;;;;;;;3.00;2.70;;;7.60;99.90;;;;;;5165550;28;20046;-39
2022/01/05 00:12:50;;;;;;;3.58;2.90;;;7.40;99.90;;;;;;5184634;28;20512;-36
2022/01/05 00:15:23;;;;;;;3.30;3.00;;;7.30;99.90;;;;;;5184516;28;20418;-36
2022/01/05 00:17:55;;;;;;;3.80;3.05;;;7.30;99.90;;;;;;5169019;28;20041;-36
2022/01/05 00:20:28;;;;;;;3.45;3.10;;;7.30;99.90;;;;;;5183048;28;20052;-37
2022/01/05 00:23:00;;;;;;;3.85;3.08;;;7.40;99.90;;;;;;5164578;28;20050;-36
2022/01/05 00:25:33;;;;;;;3.70;3.10;;;7.40;99.90;;;;;;5187277;28;20060;-35
2022/01/05 00:28:06;;;;;;;4.20;3.15;;;7.30;99.90;;;;;;5186385;28;20053;-36
2022/01/05 00:30:38;;;;;;;3.65;3.20;;;7.30;99.90;;;;;;5181704;28;20170;-36
2022/01/05 00:33:11;;;;;;;3.30;2.63;;;7.20;99.90;;;;;;5184830;28;20049;-36
2022/01/05 00:35:44;;;;;;;;;;;7.10;99.90;;;;;;5187186;28;20042;-36
2022/01/05 00:38:16;;;;;;;2.92;2.63;;;7.00;99.90;;;;;;5181967;28;20102;-37
2022/01/05 00:40:49;;;;;;;2.78;2.42;;;6.90;99.90;;;;;;5186148;28;21424;-37
2022/01/05 00:43:21;;;;;;;3.35;2.45;;;6.90;99.90;;;;;;5183077;28;20049;-35
2022/01/05 00:45:53;;;;;;;3.72;2.78;;;6.90;99.90;;;;;;5182545;28;20046;-36
2022/01/05 00:48:29;;;;;;;2.40;2.20;;;6.80;99.90;;;;;;5180500;28;20406;-37
2022/01/05 00:51:09;;;;;;;2.80;2.35;;;6.70;99.90;;;;;;5186088;28;20052;-37
2022/01/05 00:53:42;;;;;;;2.28;2.08;;;6.60;99.90;;;;;;5177175;28;20501;-43
2022/01/05 00:56:15;;;;;;;2.23;2.03;;;6.50;99.90;;;;;;5182235;28;20041;-37
2022/01/05 00:58:47;;;;;;;2.30;1.92;;;6.50;99.90;;;;;;5184617;28;20048;-37
2022/01/05 01:01:20;;;;;;;1.40;1.30;;;6.50;99.90;;;;;;5180300;28;20056;-38
2022/01/05 01:03:53;;;;;;;1.53;1.43;;;6.50;99.90;;;;;;5179057;28;20038;-37
2022/01/05 01:06:25;;;;;;;1.52;1.42;;;6.50;99.90;;;;;;5183292;28;20053;-36
2022/01/05 01:08:58;;;;;;;3.00;1.60;;;6.50;99.90;;;;;;5180169;28;20053;-36
2022/01/05 01:11:31;;;;;;;2.65;1.77;;;6.50;99.90;;;;;;5183951;28;20045;-37
2022/01/05 01:14:03;;;;;;;1.10;1.00;;;6.60;99.90;;;;;;5182258;28;20045;-36
2022/01/05 01:16:36;;;;;;;1.75;1.08;;;6.60;99.90;;;;;;5151691;28;20053;-36
2022/01/05 01:19:09;;;;;;;0.80;0.80;;;6.60;99.90;;;;;;5184654;28;20068;-36
2022/01/05 01:21:41;;;;;;;1.25;0.90;;;6.60;99.90;;;;;;5178457;28;20408;-36
2022/01/05 01:24:14;;;;;;;0.70;0.70;;;6.60;99.90;;;;;;5161241;28;20049;-36
2022/01/05 01:26:46;;;;;;;1.55;0.60;;;6.60;99.90;;;;;;5181096;28;20049;-35
2022/01/05 01:29:19;;;;;;;1.20;0.90;;;6.60;99.90;;;;;;5180072;28;20517;-36
2022/01/05 01:31:52;;;;;;;3.17;2.03;;;6.60;99.90;;;;;;5178614;28;20041;-36
2022/01/05 01:34:24;;;;;;;1.90;0.80;;;6.60;99.90;;;;;;5164913;28;20064;-36
2022/01/05 01:36:57;;;;;;;1.02;0.80;;;6.60;99.90;;;;;;5183915;28;20581;-36
2022/01/05 01:39:29;;;;;;;1.02;0.68;;;6.60;99.90;;;;;;5163195;28;20646;-36
2022/01/05 01:42:02;;;;;;;0.70;0.70;;;6.60;99.90;;;;;;5155511;28;20581;-36
2022/01/05 01:44:34;;;;;;;0.60;0.60;;;6.60;99.90;;;;;;5179359;28;20454;-36
2022/01/05 01:47:07;;;;;;;0.50;0.50;;;6.50;99.90;;;;;;5149034;28;20060;-36
2022/01/05 01:49:40;;;;;;;0.50;0.50;;;6.50;99.90;;;;;;5160535;28;20050;-36
2022/01/05 01:52:13;;;;;;;0.73;0.60;;;6.50;99.90;;;;;;5181777;28;20620;-36
2022/01/05 01:54:46;;;;;;;0.50;0.50;;;6.50;99.90;;;;;;5178678;28;20049;-37
2022/01/05 01:57:20;;;;;;;0.50;0.50;;;6.40;99.90;;;;;;5186743;28;20422;-37
2022/01/05 01:59:53;;;;;;;0.80;0.80;;;6.40;99.90;;;;;;5180812;28;20068;-36
2022/01/05 02:02:25;;;;;;;0.60;0.60;;;6.40;99.90;;;;;;5166819;28;20048;-36
2022/01/05 02:04:58;;;;;;;0.60;0.60;;;6.40;99.90;;;;;;5180070;28;20042;-37
2022/01/05 02:07:30;;;;;;;0.40;0.40;;;6.40;99.90;;;;;;5178711;28;20048;-37
2022/01/05 02:10:08;;;;;;;0.50;0.50;;;6.40;99.90;;;;;;5177224;28;20056;-36
2022/01/05 02:12:40;;;;;;;1.15;0.43;;;6.30;99.90;;;;;;5179569;28;20383;-36
2022/01/05 02:15:13;;;;;;;0.52;0.52;;;6.40;99.90;;;;;;5181707;28;20054;-36
2022/01/05 02:18:09;;;;;;;0.50;0.50;;;6.40;99.90;;;;;;5180120;28;20114;-36
2022/01/05 02:20:41;;;;;;;1.27;1.10;;;6.40;99.90;;;;;;5181641;28;20056;-35
2022/01/05 02:23:13;;;;;;;0.90;0.90;;;6.40;99.90;;;;;;5161866;28;20041;-36
2022/01/05 02:25:46;;;;;;;0.60;0.50;;;6.30;99.90;;;;;;5167611;28;20057;-36
2022/01/05 02:28:18;;;;;;;0.85;0.60;;;6.40;99.90;;;;;;5182398;28;20414;-37
2022/01/05 02:30:52;;;;;;;0.60;0.60;;;6.40;99.90;;;;;;5178522;28;20037;-37
2022/01/05 02:33:25;;;;;;;0.75;0.50;;;6.40;99.90;;;;;;5173604;28;20426;-37
2022/01/05 02:35:58;;;;;;;0.40;0.40;;;6.40;99.90;;;;;;5182198;28;20053;-36
2022/01/05 02:38:30;;;;;;;0.73;0.65;;;6.30;99.90;;;;;;5181435;28;20037;-37
2022/01/05 02:41:08;;;;;;;0.52;0.52;;;6.30;99.90;;;;;;5180240;28;20045;-36
2022/01/05 02:43:43;;;;;;;0.40;0.40;;;6.30;99.90;;;;;;5183059;28;20053;-37
2022/01/05 02:46:18;;;;;;;0.65;0.60;;;6.30;99.90;;;;;;5172900;28;20046;-37
2022/01/05 02:48:54;;;;;;;0.70;0.50;;;6.30;99.90;;;;;;5181967;28;20038;-35
2022/01/05 02:51:26;;;;;;;0.40;0.40;;;6.30;99.90;;;;;;5177771;28;20053;-37
2022/01/05 02:53:59;;;;;;;1.38;0.60;;;6.20;99.90;;;;;;5181992;28;20049;-37
2022/01/05 02:56:31;;;;;;;0.85;0.73;;;6.20;99.90;;;;;;5172234;28;20045;-37
2022/01/05 02:59:04;;;;;;;2.38;0.52;;;6.20;99.90;;;;;;5180897;28;20050;-36
2022/01/05 03:01:38;;;;;;;0.95;0.70;;;6.20;99.90;;;;;;5185145;28;20057;-36
2022/01/05 03:04:10;;;;;;;0.57;0.57;;;6.20;99.90;;;;;;5163880;28;20038;-36
2022/01/05 03:06:43;;;;;;;1.05;0.63;;;6.20;99.90;;;;;;5184735;28;20230;-36
2022/01/05 03:09:16;;;;;;;1.02;0.65;;;6.20;99.90;;;;;;5181668;28;20046;-36
2022/01/05 03:11:48;;;;;;;0.75;0.60;;;6.20;99.90;;;;;;5182585;28;20045;-36
2022/01/05 03:14:21;;;;;;;0.77;0.68;;;6.20;99.90;;;;;;5183858;28;20056;-36
2022/01/05 03:16:54;;;;;;;0.55;0.55;;;6.20;99.90;;;;;;5176942;28;20346;-36
2022/01/05 03:19:26;;;;;;;0.63;0.60;;;6.20;99.90;;;;;;5177255;28;20800;-36
2022/01/05 03:21:59;;;;;;;0.60;0.60;;;6.20;99.90;;;;;;5181966;28;20052;-36
2022/01/05 03:24:31;;;;;;;1.52;0.88;;;6.10;99.90;;;;;;5182001;28;20041;-36
2022/01/05 03:27:04;;;;;;;0.70;0.70;;;6.10;99.90;;;;;;5164692;28;20050;-36
2022/01/05 03:29:37;;;;;;;3.55;0.77;;;6.10;99.90;;;;;;5170254;28;20061;-37
2022/01/05 03:32:10;;;;;;;2.95;1.00;;;6.20;99.90;;;;;;5184116;28;20072;-37
2022/01/05 03:34:45;;;;;;;1.08;0.60;;;6.20;99.90;;;;;;5182463;28;20057;-37
2022/01/05 03:37:17;;;;;;;0.57;0.57;;;6.10;99.90;;;;;;5182107;28;20406;-35
2022/01/05 03:39:50;;;;;;;0.70;0.70;;;6.10;99.90;;;;;;5180810;28;20045;-36
2022/01/05 03:42:22;;;;;;;0.68;0.57;;;6.20;99.90;;;;;;5183758;28;20044;-36
2022/01/05 03:44:54;;;;;;;0.65;0.65;;;6.20;99.90;;;;;;5184192;28;20533;-36
2022/01/05 03:47:27;;;;;;;0.70;0.70;;;6.90;99.90;;;;;;5181192;28;20053;-35
2022/01/05 03:49:59;;;;;;;1.52;0.80;;;6.20;99.90;;;;;;5169754;28;20042;-41
2022/01/05 03:52:32;;;;;;;0.75;0.75;;;6.20;99.90;;;;;;5181361;28;20353;-37
2022/01/05 03:55:06;;;;;;;0.77;0.77;;;6.20;99.90;;;;;;5183076;28;20048;-37
2022/01/05 03:57:38;;;;;;;;;;;6.20;99.90;;;;;;5173303;28;20042;-36
2022/01/05 04:00:11;;;;;;;1.67;0.70;;;6.00;99.90;;;;;;5183388;28;19952;-35
2022/01/05 04:02:48;;;;;;;0.80;0.80;;;6.10;99.90;;;;;;5166598;28;20045;-36
2022/01/05 04:05:21;;;;;;;0.60;0.60;;;6.10;99.90;;;;;;5186366;28;20482;-36
2022/01/05 04:07:53;;;;;;;1.10;0.88;;;6.10;99.90;;;;;;5181633;28;20517;-35
2022/01/05 04:10:26;;;;;;;4.93;2.28;;;6.00;99.90;;;;;;5183269;28;20046;-36
2022/01/05 04:12:58;;;;;;;0.80;0.80;;;6.10;99.90;;;;;;5197832;23;20758;-76
2022/01/05 04:15:31;;;;;;;0.65;0.65;;;6.10;99.90;;;;;;5235246;28;20044;-77
2022/01/05 04:18:03;;;;;;;0.75;0.75;;;6.10;99.90;;;;;;5217182;28;20045;-78
2022/01/05 04:20:36;;;;;;;0.50;0.50;;;6.00;99.90;;;;;;5231632;28;20052;-79
2022/01/05 04:23:09;;;;;;;0.80;0.80;;;6.00;99.90;;;;;;5200829;28;20044;-79
2022/01/05 04:25:41;;;;;;;1.63;0.67;;;6.00;99.90;;;;;;5214748;28;20412;-79
2022/01/05 04:31:22;;;;;;;0.70;0.70;;;6.00;99.90;;;;;;5237493;28;20421;-32
2022/01/05 04:33:55;;;;;;;0.63;0.63;;;6.00;99.90;;;;;;5236671;28;20039;-31
2022/01/05 04:36:47;;;;;;;1.65;0.63;;;6.00;99.90;;;;;;5243794;28;20036;-31
2022/01/05 04:39:20;;;;;;;0.65;0.65;;;5.90;99.90;;;;;;5239047;28;20044;-32
2022/01/05 04:41:52;;;;;;;0.80;0.50;;;5.90;99.90;;;;;;5242486;28;20040;-32
2022/01/05 04:44:25;;;;;;;0.60;0.60;;;6.30;99.90;;;;;;5231815;28;20595;-32
2022/01/05 04:46:57;;;;;;;0.80;0.70;;;5.90;99.90;;;;;;5243652;28;20032;-32
2022/01/05 04:49:30;;;;;;;0.70;0.60;;;6.00;99.90;;;;;;5245132;28;20062;-31
2022/01/05 04:52:03;;;;;;;1.08;0.80;;;5.90;99.90;;;;;;5243575;28;20044;-31
2022/01/05 04:54:35;;;;;;;0.85;0.68;;;5.90;99.90;;;;;;5244258;28;20051;-32
2022/01/05 04:57:09;;;;;;;0.85;0.85;;;5.90;99.90;;;;;;5228669;28;20288;-31
2022/01/05 04:59:42;;;;;;;1.20;1.10;;;5.90;99.90;;;;;;5234418;28;20048;-31
2022/01/05 05:02:15;;;;;;;0.85;0.85;;;5.80;99.90;;;;;;5219860;28;20032;-31
2022/01/05 05:04:48;;;;;;;;;;;5.80;99.90;;;;;;5242687;28;20054;-31
2022/01/05 05:07:20;;;;;;;0.85;0.70;;;5.80;99.90;;;;;;5217592;28;20486;-31
2022/01/05 05:09:53;;;;;;;0.60;0.60;;;5.80;99.90;;;;;;5237875;28;20044;-31
2022/01/05 05:12:25;;;;;;;0.85;0.70;;;5.90;99.90;;;;;;5230199;28;20054;-31
2022/01/05 05:14:58;;;;;;;0.68;0.68;;;5.90;99.90;;;;;;5236874;28;20058;-31
2022/01/05 05:17:30;;;;;;;0.60;0.60;;;5.90;99.90;;;;;;5238167;28;20045;-32
2022/01/05 05:20:04;;;;;;;0.43;0.43;;;5.90;99.90;;;;;;5237401;28;20067;-31
2022/01/05 05:22:36;;;;;;;0.77;0.75;;;5.90;99.90;;;;;;5237686;28;20209;-31
2022/01/05 05:25:09;;;;;;;0.43;0.43;;;5.90;99.90;;;;;;5220961;28;20267;-31
2022/01/05 05:27:42;;;;;;;0.68;0.68;;;5.80;99.90;;;;;;5235016;28;20052;-31
2022/01/05 05:30:35;;;;;;;0.60;0.60;;;5.70;99.90;;;;;;5236506;28;20056;-31
2022/01/05 05:33:07;;;;;;;0.50;0.50;;;5.80;99.90;;;;;;5230488;28;20218;-31
2022/01/05 05:35:41;;;;;;;0.60;0.60;;;5.80;99.90;;;;;;5242266;28;20438;-31
2022/01/05 05:38:15;;;;;;;2.05;0.60;;;5.80;99.90;;;;;;5243720;28;20067;-31
2022/01/05 05:40:48;;;;;;;0.60;0.60;;;5.80;99.90;;;;;;5237486;28;20045;-31
2022/01/05 05:43:20;;;;;;;0.95;0.52;;;5.80;99.90;;;;;;5240584;28;20055;-31
2022/01/05 05:45:53;;;;;;;0.60;0.60;;;5.80;99.90;;;;;;5226504;28;20048;-31
2022/01/05 05:48:26;;;;;;;0.63;0.60;;;5.80;99.90;;;;;;5233015;28;20389;-31
2022/01/05 05:50:58;;;;;;;0.40;0.40;;;5.50;99.90;;;;;;5215772;28;20067;-31
2022/01/05 05:53:31;;;;;;;0.65;0.52;;;5.70;99.90;;;;;;5237396;28;21331;-32
2022/01/05 05:56:03;;;;;;;0.55;0.55;;;5.70;99.90;;;;;;5242351;28;20546;-31
2022/01/05 05:58:36;;;;;;;0.45;0.45;;;5.20;99.90;;;;;;5236893;28;20512;-32
2022/01/05 06:01:08;;;;;;;0.70;0.57;;;5.70;99.90;;;;;;5238068;28;20075;-31
2022/01/05 06:03:41;;;;;;;0.40;0.40;;;6.50;99.90;;;;;;5236882;28;20067;-31
2022/01/05 06:06:13;;;;;;;0.50;0.50;;;5.80;99.90;;;;;;5228926;28;20736;-32
2022/01/05 06:08:46;;;;;;;0.70;0.70;;;5.80;99.90;;;;;;5244679;28;20051;-32
2022/01/05 06:11:19;;;;;;;0.85;0.50;;;5.80;99.90;;;;;;5247285;28;20560;-31
2022/01/05 06:13:52;;;;;;;1.90;0.40;;;5.70;99.90;;;;;;5229712;28;20039;-31
2022/01/05 06:16:25;;;;;;;0.43;0.40;;;5.70;99.90;;;;;;5245754;28;20146;-31
2022/01/05 06:18:57;;;;;;;1.55;0.55;;;5.70;99.90;;;;;;5241685;28;20044;-31
2022/01/05 06:21:30;;;;;;;0.60;0.38;;;5.80;99.90;;;;;;5237831;28;20063;-33
2022/01/05 06:24:02;;;;;;;0.52;0.52;;;5.80;99.90;;;;;;5194917;28;20028;-32
2022/01/05 06:26:35;;;;;;;0.80;0.70;;;5.80;99.90;;;;;;5218459;28;20052;-32
2022/01/05 06:29:08;;;;;;;1.50;0.52;;;5.80;99.90;;;;;;5234637;28;20064;-32
2022/01/05 06:31:41;;;;;;;0.87;0.70;;;5.70;99.90;;;;;;5239463;28;20048;-32
2022/01/05 06:34:13;;;;;;;0.50;0.50;;;6.10;99.90;;;;;;5224223;28;20664;-32
2022/01/05 06:36:46;;;;;;;0.47;0.47;;;5.70;99.90;;;;;;5243968;28;20052;-31
2022/01/05 06:39:18;;;;;;;1.75;0.60;;;5.70;99.90;;;;;;5242346;28;20489;-31
2022/01/05 06:41:51;;;;;;;0.63;0.60;;;5.70;99.90;;;;;;5240909;28;20044;-31
2022/01/05 06:44:23;;;;;;;0.50;0.50;;;5.70;99.90;;;;;;5245337;28;20408;-31
2022/01/05 06:46:56;;;;;;;0.75;0.57;;;5.70;99.90;;;;;;5242483;28;20410;-31
2022/01/05 06:49:28;;;;;;;0.55;0.50;;;8.10;99.90;;;;;;5225851;28;20041;-31
2022/01/05 06:52:01;;;;;;;0.60;0.50;;;5.70;99.90;;;;;;5241370;28;20049;-31
2022/01/05 06:54:33;;;;;;;1.02;0.43;;;5.70;99.90;;;;;;5245191;28;20424;-32
2022/01/05 06:57:08;;;;;;;0.73;0.50;;;5.70;99.90;;;;;;5243083;28;20430;-31
2022/01/05 06:59:40;;;;;;;2.67;0.60;;;5.80;99.90;;;;;;5243094;28;20064;-32
2022/01/05 07:02:13;;;;;;;0.65;0.50;;;5.60;99.90;;;;;;5228624;28;20084;-32
2022/01/05 07:04:45;;;;;;;0.95;0.85;;;5.70;99.90;;;;;;5225835;28;20040;-32
2022/01/05 07:07:18;;;;;;;0.73;0.60;;;5.80;99.90;;;;;;5239001;28;20535;-31
2022/01/05 07:09:51;;;;;;;0.50;0.50;;;5.80;99.90;;;;;;5246364;28;20519;-31
2022/01/05 07:12:24;;;;;;;0.57;0.57;;;5.80;99.90;;;;;;5241925;28;20135;-31
2022/01/05 07:14:56;;;;;;;0.60;0.57;;;5.70;99.90;;;;;;5244628;28;20048;-31
2022/01/05 07:17:29;;;;;;;1.63;0.50;;;5.70;99.90;;;;;;5238775;28;20044;-31
2022/01/05 07:20:02;;;;;;;1.38;0.60;;;5.80;99.90;;;;;;5228121;28;20223;-31
2022/01/05 07:22:35;;;;;;;0.60;0.60;;;5.80;99.90;;;;;;5220436;28;20055;-32
2022/01/05 07:25:09;;;;;;;0.60;0.60;;;5.80;99.90;;;;;;5245246;28;20385;-32
2022/01/05 07:27:42;;;;;;;0.40;0.40;;;5.80;99.90;;;;;;5242902;28;20036;-31
2022/01/05 07:30:16;;;;;;;0.77;0.50;;;5.80;99.90;;;;;;5244199;28;20055;-32
2022/01/05 07:32:48;;;;;;;0.55;0.55;;;7.70;99.90;;;;;;5231020;28;20059;-32
2022/01/05 07:35:21;;;;;;;0.47;0.47;;;5.80;99.90;;;;;;5230526;28;21006;-31
2022/01/05 07:37:53;;;;;;;0.65;0.50;;;3.70;99.90;;;;;;5228130;28;26996;-31
2022/01/05 07:40:26;;;;;;;0.60;0.60;;;5.90;99.90;;;;;;5246117;28;20036;-31
2022/01/05 07:42:58;;;;;;;0.52;0.50;;;8.90;99.90;;;;;;5223821;28;20284;-31
2022/01/05 07:45:31;;;;;;;1.50;0.60;;;5.90;99.90;;;;;;5241656;28;20503;-31
2022/01/05 07:48:06;;;;;;;0.60;0.60;;;5.90;99.90;;;;;;5232435;28;26125;-31
2022/01/05 07:50:39;;;;;;;0.57;0.50;;;5.90;99.90;;;;;;5227478;28;20044;-31
2022/01/05 07:53:12;;;;;;;0.57;0.57;;;5.90;99.90;;;;;;5213941;28;20040;-31
2022/01/05 07:55:44;;;;;;;0.57;0.50;;;5.90;99.90;;;;;;5230094;28;20796;-31
2022/01/05 07:58:17;;;;;;;1.02;0.50;;;5.70;99.90;;;;;;5230349;28;20044;-31
2022/01/05 08:00:49;;;;;;;0.68;0.52;;;5.80;99.90;;;;;;5232785;28;20515;-31
2022/01/05 08:03:22;;;;;;;0.80;0.73;;;5.90;99.90;;;;;;5231734;28;20394;-31
2022/01/05 08:06:15;;;;;;;1.38;0.50;;;5.90;99.90;;;;;;5217025;28;20066;-32
2022/01/05 08:08:48;;;;;;;0.80;0.73;;;5.90;99.90;;;;;;5226753;28;20416;-31
2022/01/05 08:11:21;;;;;;;0.50;0.50;;;5.90;99.90;;;;;;5236579;28;20051;-31
2022/01/05 08:13:54;;;;;;;0.50;0.50;;;5.90;99.90;;;;;;5232944;28;20052;-31
2022/01/05 08:16:26;;;;;;;0.70;0.70;;;5.80;99.90;;;;;;5235045;28;20043;-32
2022/01/05 08:18:59;;;;;;;0.90;0.50;;;5.80;99.90;;;;;;5195454;28;24452;-31
2022/01/05 08:21:31;;;;;;;0.60;0.60;;;5.80;99.90;;;;;;5230962;28;20267;-31
2022/01/05 08:24:04;;;;;;;0.50;0.40;;;5.90;99.90;;;;;;5230610;28;20126;-32
2022/01/05 08:26:37;;;;;;;2.10;0.40;;;7.70;99.90;;;;;;5227578;28;20044;-32
2022/01/05 08:29:09;;;;;;;0.47;0.45;;;5.80;99.90;;;;;;5226879;28;20480;-31
2022/01/05 08:31:42;;;;;;;0.55;0.55;;;6.30;99.90;;;;;;5232149;28;20040;-31
2022/01/05 08:34:14;;;;;;;0.45;0.45;;;6.40;99.90;;;;;;5217470;28;20059;-32
2022/01/05 08:36:47;;;;;;;1.77;0.70;;;7.00;99.90;;;;;;5220306;28;20044;-31
2022/01/05 08:39:20;;;;;;;0.57;0.57;;;5.80;99.90;;;;;;5220722;28;20040;-31
2022/01/05 08:41:53;;;;;;;0.87;0.73;;;5.80;99.90;;;;;;5234836;28;20047;-31
2022/01/05 08:44:25;;;;;;;0.43;0.43;;;5.80;99.90;;;;;;5232138;28;20047;-31
2022/01/05 08:46:58;;;;;;;0.70;0.70;;;5.80;99.90;;;;;;5222505;28;20075;-31
2022/01/05 08:49:30;;;;;;;0.90;0.70;;;5.80;99.90;;;;;;5221278;28;20508;-31
2022/01/05 08:52:03;;;;;;;0.68;0.68;;;5.80;99.90;;;;;;5234824;28;20052;-31
2022/01/05 08:54:36;;;;;;;1.15;0.77;;;5.80;99.90;;;;;;5229979;28;20044;-31
2022/01/05 08:57:09;;;;;;;0.50;0.50;;;5.80;99.90;;;;;;5227808;28;20411;-31
2022/01/05 08:59:43;;;;;;;0.75;0.75;;;5.80;99.90;;;;;;5230795;28;20055;-31
2022/01/05 09:02:15;;;;;;;0.45;0.45;;;7.40;99.90;;;;;;5219871;28;20055;-32
2022/01/05 09:04:51;;;;;;;0.52;0.52;;;5.00;99.90;;;;;;5223594;28;20047;-32
2022/01/05 09:07:24;;;;;;;0.60;0.60;;;5.60;99.90;;;;;;5228184;28;20059;-31
2022/01/05 09:09:56;;;;;;;0.60;0.60;;;5.70;99.90;;;;;;5223818;28;20054;-31
2022/01/05 09:12:29;;;;;;;0.60;0.60;;;5.70;99.90;;;;;;5229254;28;20114;-31
2022/01/05 09:15:02;;;;;;;1.90;0.82;;;5.70;99.90;;;;;;5233099;28;20040;-32
2022/01/05 09:17:35;;;;;;;2.25;1.50;;;5.70;99.90;;;;;;5230691;28;20052;-32
2022/01/05 09:20:08;;;;;;;0.63;0.63;;;5.50;99.90;;;;;;5224934;28;20040;-31
2022/01/05 09:22:40;;;;;;;1.25;1.10;;;5.70;99.90;;;;;;5217912;28;20048;-31
2022/01/05 09:25:15;;;;;;;1.27;1.00;;;5.60;99.90;;;;;;5230112;28;20259;-31
2022/01/05 09:27:47;;;;;;;2.50;1.65;;;5.60;99.90;;;;;;5220304;28;20047;-32
2022/01/05 09:30:22;;;;;;;2.65;1.25;;;5.60;99.90;;;;;;5227372;28;20052;-31
2022/01/05 09:32:57;;;;;;;1.30;1.05;;;5.60;99.90;;;;;;5212927;28;20166;-31
2022/01/05 09:35:32;;;;;;;1.27;1.17;;;5.40;99.90;;;;;;5222110;28;20550;-32
2022/01/05 09:43:30;;;;;;;1.90;1.67;;;3.60;99.90;;;;;;5202026;28;20040;-31
2022/01/05 09:46:09;;;;;;;1.60;1.50;;;5.20;99.90;;;;;;5205816;28;20044;-31
2022/01/05 09:48:58;;;;;;;1.60;1.50;;;6.20;99.90;;;;;;5217828;28;20051;-31
2022/01/05 09:51:31;;;;;;;3.33;1.48;;;5.00;99.90;;;;;;5221021;28;20051;-31
2022/01/05 09:54:04;;;;;;;1.40;1.30;;;5.60;99.90;;;;;;5212848;28;20436;-31
2022/01/05 09:56:58;;;;;;;2.85;1.92;;;4.90;99.90;;;;;;5202335;28;20094;-31
2022/01/05 09:59:33;;;;;;;2.33;2.13;;;4.20;99.90;;;;;;5222195;28;20044;-31
2022/01/05 10:02:06;;;;;;;3.78;2.40;;;3.50;99.90;;;;;;5223250;28;21247;-32
2022/01/05 10:04:40;;;;;;;3.80;3.08;;;4.00;99.90;;;;;;5226321;28;20639;-31
2022/01/05 10:07:13;;;;;;;3.63;2.97;;;4.60;99.90;;;;;;5224961;28;20575;-32
2022/01/05 10:09:49;;;;;;;3.35;3.05;;;7.30;99.90;;;;;;5208135;28;20216;-31
2022/01/05 10:12:22;;;;;;;4.18;3.53;;;3.90;99.90;;;;;;5229007;28;20409;-31
2022/01/05 10:14:55;;;;;;;5.55;3.78;;;;;;;;;;5198033;22;20061;-43
2022/01/05 10:17:31;;;;;;;4.90;4.20;;;6.00;99.90;;;;;;5180078;28;20497;-41
2022/01/05 10:20:09;;;;;;;4.90;4.40;;;6.60;99.90;;;;;;5180388;28;20048;-41
2022/01/05 10:22:45;;;;;;;5.20;4.30;;;4.40;99.90;;;;;;5172077;28;20447;-43
2022/01/05 10:25:22;;;;;;;5.32;3.80;;;3.40;99.90;;;;;;5200690;28;20041;-43
2022/01/05 10:28:03;;;;;;;4.63;3.75;;;2.50;99.90;;;;;;5192862;28;20513;-42
2022/01/05 10:30:40;;;;;;;;;;;4.30;99.90;;;;;;5190161;28;20552;-41
2022/01/05 10:33:12;;;;;;;6.55;4.00;;;4.20;99.90;;;;;;5195535;28;19924;-44
2022/01/05 10:35:57;;;;;;;3.90;3.50;;;4.20;99.90;;;;;;5193152;28;20048;-45
2022/01/05 10:38:30;;;;;;;5.25;4.53;;;;;;;;;;5180285;28;20056;-43
2022/01/05 10:41:17;;;;;;;5.72;4.57;;;4.10;99.90;;;;;;5189113;28;20485;-44
2022/01/05 10:44:11;;;;;;;5.47;4.22;;;6.90;99.90;;;;;;5205839;28;20500;-42
2022/01/05 10:46:52;;;;;;;5.05;3.72;;;4.20;99.90;;;;;;5184572;28;20032;-42
2022/01/05 10:49:26;;;;;;;4.50;3.88;;;;;;;;;;5181607;28;20048;-42
2022/01/05 10:52:03;;;;;;;6.60;4.57;;;3.70;99.90;;;;;;5171009;28;20528;-42
2022/01/05 10:54:35;;;;;;;6.38;4.65;;;;;;;;;;5197414;28;21866;-44
2022/01/05 10:57:11;;;;;;;3.47;3.03;;;4.80;99.90;;;;;;5199228;28;21078;-41
2022/01/05 10:59:49;;;;;;;6.07;3.63;;;5.30;99.90;;;;;;5173643;22;21030;-39
2022/01/05 11:02:30;;;;;;;8.30;4.32;;;4.40;99.90;;;;;;5174250;28;20555;-40
2022/01/05 11:05:05;;;;;;;7.35;3.80;;;5.50;99.90;;;;;;5164570;28;21188;-37
2022/01/05 11:07:39;;;;;;;4.72;3.25;;;5.90;99.90;;;;;;5171144;28;20048;-37
2022/01/05 11:10:15;;;;;;;9.35;3.60;;;6.30;99.90;;;;;;5178056;28;20067;-39
2022/01/05 11:12:53;;;;;;;4.00;3.15;;;4.40;99.90;;;;;;5208218;28;20067;-40
2022/01/05 11:15:33;;;;;;;7.07;3.63;;;4.30;99.90;;;;;;5187865;28;20052;-38
2022/01/05 11:18:18;;;;;;;8.00;4.00;;;4.30;99.90;;;;;;5241653;22;20047;-87
2022/01/05 11:20:57;;;;;;;4.90;3.35;;;4.40;99.90;;;;;;5192436;28;20054;-86
2022/01/05 11:23:42;;;;;;;6.53;3.47;;;5.40;99.90;;;;;;5245144;28;20055;-86
2022/01/05 11:26:14;;;;;;;6.38;3.10;;;4.30;99.90;;;;;;5214752;28;20044;-86
2022/01/05 11:28:47;;;;;;;6.10;3.35;;;;;;;;;;5234346;28;20049;-85
2022/01/05 11:31:21;;;;;;;4.40;3.70;;;5.40;99.90;;;;;;5225472;28;20052;-85
2022/01/05 11:33:54;;;;;;;5.32;3.30;;;3.80;99.90;;;;;;5254474;28;20059;-86
2022/01/05 11:36:26;;;;;;;4.55;3.17;;;4.20;99.90;;;;;;5228764;28;20044;-84
2022/01/05 11:39:06;;;;;;;7.55;3.22;;;4.30;99.90;;;;;;5254610;28;20043;-87
2022/01/05 11:41:46;;;;;;;4.20;2.90;;;4.10;99.90;;;;;;5184190;28;20069;-84
2022/01/05 11:44:19;;;;;;;3.03;2.60;;;3.10;99.90;;;;;;5204450;28;20047;-85
2022/01/05 11:46:52;;;;;;;6.45;2.92;;;4.80;99.90;;;;;;5204642;28;20040;-86
2022/01/05 11:49:30;;;;;;;4.63;3.10;;;3.80;99.90;;;;;;5203657;28;20048;-88
2022/01/05 11:52:03;;;;;;;7.10;2.80;;;3.70;99.90;;;;;;5218701;28;20055;-86
2022/01/05 11:54:36;;;;;;;4.57;2.90;;;;;;;;;;5224472;28;20059;-85
2022/01/05 11:57:12;;;;;;;6.13;3.42;;;3.70;99.90;;;;;;5216985;28;20048;-86
2022/01/05 11:59:45;;;;;;;6.32;2.88;;;4.20;99.90;;;;;;5223332;28;20059;-86
2022/01/05 12:02:18;;;;;;;7.50;3.08;;;;;;;;;;5196708;28;20053;-86
2022/01/05 12:04:56;;;;;;;4.75;2.90;;;2.30;99.90;;;;;;5206795;28;20070;-85
2022/01/05 12:08:07;;;;;;;5.95;2.58;;;2.70;99.90;;;;;;5198272;28;20067;-87
2022/01/05 12:10:52;;;;;;;5.45;2.72;;;3.40;99.90;;;;;;5202900;28;20055;-85
2022/01/05 12:13:35;;;;;;;4.10;2.22;;;3.40;99.70;;;;;;5249719;28;20071;-86
2022/01/05 12:16:08;;;;;;;5.38;2.60;;;3.40;98.00;;;;;;5227163;28;20056;-85
2022/01/05 12:18:43;;;;;;;7.63;3.20;;;;;;;;;;5229048;28;20047;-87
2022/01/05 12:21:41;;;;;;;7.13;2.78;;;3.40;99.40;;;;;;5251470;28;20040;-85
2022/01/05 12:24:14;;;;;;;4.30;2.60;;;4.00;99.90;;;;;;5250205;28;20048;-85
2022/01/05 12:27:20;;;;;;;6.75;3.30;;;4.50;99.80;;;;;;5260297;28;20051;-86
2022/01/05 12:29:54;;;;;;;8.93;2.83;;;3.50;99.90;;;;;;5234898;28;20051;-86
2022/01/05 12:32:38;;;;;;;5.88;2.80;;;3.60;99.90;;;;;;5262766;28;20063;-86
2022/01/05 12:35:18;;;;;;;4.63;2.67;;;5.20;96.90;;;;;;5220904;28;20052;-87
2022/01/05 12:37:56;;;;;;;6.82;2.53;;;4.60;96.10;;;;;;5250553;28;20036;-86
2022/01/05 12:40:35;;;;;;;5.60;2.72;;;3.40;95.10;;;;;;5214959;28;20062;-86
2022/01/05 12:43:08;;;;;;;5.15;2.47;;;3.50;95.40;;;;;;5213214;28;20052;-87
2022/01/05 12:45:51;;;;;;;6.18;2.72;;;4.60;94.60;;;;;;5241451;28;20052;-85
2022/01/05 12:48:34;;;;;;;6.78;3.05;;;3.20;93.70;;;;;;5243943;28;20048;-85
2022/01/05 12:53:50;;;;;;;4.53;2.78;;;6.00;94.80;;;;;;5237818;28;20047;-84
2022/01/05 12:56:37;;;;;;;5.10;2.33;;;4.80;94.60;;;;;;5240345;28;20052;-86
2022/01/05 12:59:21;;;;;;;5.13;3.00;;;3.50;95.50;;;;;;5244996;28;20766;-86
2022/01/05 13:01:56;;;;;;;5.70;3.38;;;3.30;95.30;;;;;;5231351;28;20040;-86
2022/01/05 13:04:30;;;;;;;5.25;2.80;;;3.30;94.30;;;;;;5231851;28;20044;-87
2022/01/05 13:07:07;;;;;;;4.28;2.67;;;;;;;;;;5201311;28;20058;-84
2022/01/05 13:09:43;;;;;;;7.57;3.30;;;3.70;93.90;;;;;;5256925;27;20051;-86
2022/01/05 13:12:19;;;;;;;6.00;3.03;;;3.60;94.50;;;;;;5244602;28;20302;-86
2022/01/05 13:15:00;;;;;;;4.93;2.80;;;2.60;94.60;;;;;;5265040;28;20043;-86
2022/01/05 13:17:36;;;;;;;7.30;2.92;;;4.10;95.40;;;;;;5243136;28;20055;-87
2022/01/05 13:20:14;;;;;;;5.80;2.92;;;3.10;95.20;;;;;;5224141;28;20502;-87
2022/01/05 13:22:51;;;;;;;5.60;3.05;;;3.30;94.00;;;;;;5211741;28;20071;-88
2022/01/05 13:25:27;;;;;;;6.88;3.55;;;3.40;94.60;;;;;;5211865;28;20035;-84
2022/01/05 13:28:06;;;;;;;3.67;2.70;;;3.50;95.30;;;;;;5196057;28;20074;-85
2022/01/05 13:30:41;;;;;;;4.93;3.08;;;3.70;95.90;;;;;;5214410;28;20074;-84
2022/01/05 13:33:15;;;;;;;5.75;2.85;;;3.50;95.70;;;;;;5232730;28;20131;-87
2022/01/05 13:35:48;;;;;;;7.93;3.22;;;;;;;;;;5232510;28;20036;-85
2022/01/05 13:38:22;;;;;;;12.07;3.50;;;;;;;;;;5223066;28;23994;-86
2022/01/05 13:40:56;;;;;;;5.30;3.20;;;3.90;96.70;;;;;;5237712;28;20051;-85
2022/01/05 13:43:28;;;;;;;;;;;3.60;96.10;;;;;;5248453;28;20040;-86
2022/01/05 13:46:01;;;;;;;6.88;3.47;;;5.80;99.50;;;;;;5214319;28;19927;-85
2022/01/05 13:48:35;;;;;;;5.33;3.00;;;;;;;;;;5234107;28;20059;-86
2022/01/05 13:51:10;;;;;;;7.00;2.65;;;5.70;99.90;;;;;;5202624;28;20052;-86